Time;durP1;ratioP1;P1;durP2;ratioP2;P2;SDS_P1;SDS_P2;PMS_P1;PMS_P2;Temp;Humidity;BMP_temperature;BMP_pressure;BME280_temperature;BME280_humidity;BME280_pressure;Samples;Min_cycle;Max_cycle;Signal;HPM_P1;HPM_P2
2023/10/29 00:02:17;;;;;;;6.15;2.30;;;;;;;21.56;45.52;100392.66;5052496;28;20104;-79
2023/10/29 00:04:43;;;;;;;11.55;2.90;;;;;;;21.69;45.58;100418.22;5052549;28;20155;-81
2023/10/29 00:07:09;;;;;;;7.35;2.10;;;;;;;21.59;45.67;100408.69;5052311;28;20492;-80
2023/10/29 00:09:34;;;;;;;7.45;2.40;;;;;;;21.68;45.51;100424.75;5052385;28;20040;-80
2023/10/29 00:12:00;;;;;;;6.43;2.38;;;;;;;21.63;45.71;100423.66;5052339;28;20049;-78
2023/10/29 00:14:26;;;;;;;8.75;2.00;;;;;;;21.56;45.81;100431.81;5052059;28;20485;-80
2023/10/29 00:16:52;;;;;;;6.28;2.30;;;;;;;21.37;45.93;100405.19;5052253;28;20107;-79
2023/10/29 00:19:17;;;;;;;9.23;2.22;;;;;;;21.40;46.02;100437.63;5052257;28;20036;-78
2023/10/29 00:21:43;;;;;;;3.20;1.92;;;;;;;21.39;45.98;100424.97;5051997;28;20515;-79
2023/10/29 00:24:08;;;;;;;15.52;2.67;;;;;;;21.34;46.05;100432.97;5051754;28;20705;-80
2023/10/29 00:26:34;;;;;;;5.78;2.40;;;;;;;21.26;46.14;100435.81;5050550;28;20037;-79
2023/10/29 00:29:00;;;;;;;5.25;2.17;;;;;;;21.29;46.16;100446.38;5052107;28;20029;-79
2023/10/29 00:31:26;;;;;;;9.13;2.50;;;;;;;21.29;46.09;100438.16;5051835;28;20507;-79
2023/10/29 00:33:52;;;;;;;3.95;2.63;;;;;;;21.30;46.25;100448.06;5051966;28;20029;-80
2023/10/29 00:36:17;;;;;;;7.90;2.20;;;;;;;21.24;46.35;100435.19;5052043;28;20652;-79
2023/10/29 00:38:43;;;;;;;7.55;2.70;;;;;;;21.28;46.55;100431.03;5059800;28;20024;-79
2023/10/29 00:41:08;;;;;;;5.20;2.20;;;;;;;21.26;46.81;100441.28;5064466;28;20085;-79
2023/10/29 00:43:40;;;;;;;11.38;3.05;;;;;;;21.12;47.14;100444.97;5055381;28;20031;-79
2023/10/29 00:46:06;;;;;;;8.97;2.03;;;;;;;20.94;47.28;100425.44;5050796;28;20470;-79
2023/10/29 00:48:34;;;;;;;11.05;2.58;;;;;;;20.91;47.48;100420.34;5051403;28;20047;-78
2023/10/29 00:51:00;;;;;;;7.80;3.20;;;;;;;20.81;47.54;100419.84;5051279;28;20033;-79
2023/10/29 00:53:28;;;;;;;6.55;2.70;;;;;;;20.89;47.45;100438.81;5051166;28;20037;-79
2023/10/29 00:55:54;;;;;;;10.52;2.60;;;;;;;20.77;47.50;100418.53;5051343;28;20079;-79
2023/10/29 00:58:20;;;;;;;10.57;3.05;;;;;;;20.88;47.53;100431.69;5051710;28;20128;-80
2023/10/29 01:00:46;;;;;;;13.05;3.35;;;;;;;20.83;47.55;100440.47;5051636;28;20048;-80
2023/10/29 01:03:11;;;;;;;12.23;2.78;;;;;;;20.77;48.00;100456.78;5050476;28;20032;-79
2023/10/29 01:05:40;;;;;;;16.85;4.10;;;;;;;20.67;48.72;100448.09;5051508;28;20021;-80
2023/10/29 01:08:07;;;;;;;6.70;3.00;;;;;;;20.66;48.56;100444.50;5051396;28;20127;-80
2023/10/29 01:10:33;;;;;;;15.80;3.75;;;;;;;20.43;48.89;100405.56;5051190;28;20032;-80
2023/10/29 01:12:58;;;;;;;21.35;3.33;;;;;;;20.69;48.84;100454.19;5054154;28;20025;-79
2023/10/29 01:15:24;;;;;;;12.45;2.67;;;;;;;20.61;49.19;100450.53;5051541;28;20480;-80
2023/10/29 01:17:49;;;;;;;10.05;4.03;;;;;;;20.54;49.29;100444.19;5050919;28;20098;-80
2023/10/29 01:20:15;;;;;;;9.93;2.95;;;;;;;20.54;48.95;100452.38;5051225;28;20405;-81
2023/10/29 01:22:40;;;;;;;14.15;3.40;;;;;;;20.47;49.20;100451.44;5048322;28;20130;-80
2023/10/29 01:25:09;;;;;;;19.90;3.13;;;;;;;20.31;49.62;100438.00;5050880;28;20420;-81
2023/10/29 01:27:38;;;;;;;10.68;3.10;;;;;;;20.24;50.04;100450.72;5050999;28;20037;-80
2023/10/29 01:30:07;;;;;;;4.10;2.40;;;;;;;20.35;49.31;100446.66;5052401;28;20025;-80
2023/10/29 01:32:33;;;;;;;11.98;3.70;;;;;;;20.29;49.26;100452.91;5062919;28;20039;-80
2023/10/29 01:34:58;;;;;;;9.30;2.60;;;;;;;20.26;49.58;100458.75;5058145;28;20055;-79
2023/10/29 01:37:24;;;;;;;7.25;2.80;;;;;;;20.14;49.66;100446.59;5050845;28;20040;-79
2023/10/29 01:39:50;;;;;;;15.23;2.92;;;;;;;20.06;49.77;100453.00;5050480;28;20481;-78
2023/10/29 01:42:15;;;;;;;14.55;3.42;;;;;;;20.05;50.33;100456.78;5050558;28;20029;-80
2023/10/29 01:44:41;;;;;;;8.40;3.08;;;;;;;20.08;50.49;100467.31;5050183;28;20043;-79
2023/10/29 01:47:06;;;;;;;9.75;2.58;;;;;;;20.02;50.17;100457.16;5050300;28;20064;-79
2023/10/29 01:49:33;;;;;;;17.85;3.78;;;;;;;20.01;50.34;100472.69;5050273;28;20036;-80
2023/10/29 01:51:58;;;;;;;15.30;3.95;;;;;;;20.03;50.62;100475.22;5050060;28;20473;-79
2023/10/29 01:54:24;;;;;;;6.30;2.85;;;;;;;19.98;50.82;100467.59;5050105;28;20033;-79
2023/10/29 01:56:50;;;;;;;18.55;3.33;;;;;;;19.93;51.19;100485.59;5050369;28;20493;-80
2023/10/29 01:59:15;;;;;;;12.30;3.55;;;;;;;19.89;51.23;100484.25;5050377;28;20033;-80
2023/10/29 02:01:41;;;;;;;7.70;2.60;;;;;;;19.85;51.28;100482.94;5050087;28;20051;-79
2023/10/29 02:04:11;;;;;;;7.63;2.85;;;;;;;19.79;51.18;100486.41;5049802;28;20037;-80
2023/10/29 02:06:39;;;;;;;11.52;2.75;;;;;;;19.78;51.14;100487.47;5049278;28;20057;-79
2023/10/29 02:09:09;;;;;;;8.52;3.00;;;;;;;19.78;51.41;100499.25;5049880;28;20021;-79
2023/10/29 02:11:39;;;;;;;12.02;2.95;;;;;;;19.73;50.92;100471.66;5049771;28;20033;-80
2023/10/29 02:14:05;;;;;;;9.85;3.55;;;;;;;19.82;50.92;100484.16;5050122;28;20032;-78
2023/10/29 02:16:31;;;;;;;4.78;2.58;;;;;;;19.76;50.84;100462.22;5049623;28;20033;-78
2023/10/29 02:18:56;;;;;;;9.13;3.22;;;;;;;19.77;51.04;100478.44;5050019;28;20030;-80
2023/10/29 02:21:23;;;;;;;10.45;3.28;;;;;;;19.75;51.25;100485.13;5049586;28;20086;-78
2023/10/29 02:23:49;;;;;;;5.05;2.95;;;;;;;19.60;51.38;100479.63;5058229;28;20513;-80
2023/10/29 02:26:17;;;;;;;4.70;2.33;;;;;;;19.70;51.27;100490.28;5062599;28;20105;-79
2023/10/29 02:28:42;;;;;;;5.95;2.80;;;;;;;19.53;51.48;100468.63;5052915;28;20072;-81
2023/10/29 02:31:14;;;;;;;12.82;2.75;;;;;;;19.60;51.44;100489.72;5050077;28;20527;-79
2023/10/29 02:33:40;;;;;;;;;;;;;;;19.64;51.60;100501.94;5050155;28;20025;-79
2023/10/29 02:36:05;;;;;;;8.90;3.10;;;;;;;19.52;51.83;100507.84;5049683;28;19917;-79
2023/10/29 02:38:31;;;;;;;13.02;2.75;;;;;;;19.47;52.03;100504.84;5049730;28;20263;-80
2023/10/29 02:40:56;;;;;;;12.90;2.55;;;;;;;19.39;51.89;100510.34;5049715;28;20098;-79
2023/10/29 02:43:22;;;;;;;9.65;2.47;;;;;;;19.37;52.14;100528.75;5049535;28;20039;-79
2023/10/29 02:45:47;;;;;;;10.30;3.10;;;;;;;19.21;52.08;100501.63;5050135;28;20056;-79
2023/10/29 02:48:13;;;;;;;8.45;2.58;;;;;;;19.34;52.35;100526.41;5047478;28;20040;-79
2023/10/29 02:50:38;;;;;;;9.57;2.60;;;;;;;19.29;52.07;100520.66;5049279;28;20087;-79
2023/10/29 02:53:04;;;;;;;12.95;2.67;;;;;;;19.34;51.63;100520.94;5049776;28;20037;-79
2023/10/29 02:55:29;;;;;;;6.97;2.55;;;;;;;19.25;51.83;100502.09;5049801;28;20694;-79
2023/10/29 02:57:55;;;;;;;12.98;2.58;;;;;;;19.33;51.82;100519.25;5049694;28;20059;-79
2023/10/29 03:00:20;;;;;;;7.18;2.83;;;;;;;19.38;51.59;100527.75;5049599;28;20499;-79
2023/10/29 03:02:46;;;;;;;8.65;3.63;;;;;;;19.39;51.64;100537.63;5049263;28;20491;-80
2023/10/29 03:05:12;;;;;;;9.00;2.55;;;;;;;19.30;51.46;100532.41;5046712;28;20076;-80
2023/10/29 03:07:38;;;;;;;14.68;3.33;;;;;;;19.29;51.62;100541.63;5049446;28;20057;-79
2023/10/29 03:10:04;;;;;;;7.38;2.95;;;;;;;19.20;51.82;100543.56;5049675;28;20025;-79
2023/10/29 03:12:30;;;;;;;6.22;2.92;;;;;;;19.26;51.64;100553.75;5049229;28;20025;-79
2023/10/29 03:14:56;;;;;;;9.88;2.78;;;;;;;18.84;52.10;100498.84;5050926;28;20116;-79
2023/10/29 03:17:21;;;;;;;7.55;2.88;;;;;;;19.19;51.82;100551.94;5064937;28;20632;-80
2023/10/29 03:19:47;;;;;;;6.18;2.25;;;;;;;19.12;51.77;100540.88;5064990;28;20135;-80
2023/10/29 03:22:12;;;;;;;15.23;3.47;;;;;;;19.17;51.79;100543.94;5052945;28;20084;-80
2023/10/29 03:24:38;;;;;;;13.35;3.08;;;;;;;19.17;51.79;100554.00;5034171;28;20057;-81
2023/10/29 03:27:04;;;;;;;8.57;2.28;;;;;;;19.11;51.92;100541.09;5053013;28;20025;-78
2023/10/29 03:29:30;;;;;;;9.52;2.88;;;;;;;19.08;51.83;100538.72;5053128;28;20025;-78
2023/10/29 03:31:55;;;;;;;5.50;2.35;;;;;;;19.08;52.13;100538.72;5052845;28;20025;-79
2023/10/29 03:34:21;;;;;;;7.93;2.72;;;;;;;19.02;52.25;100556.63;5052664;28;20036;-79
2023/10/29 03:36:46;;;;;;;4.32;2.47;;;;;;;18.94;52.25;100541.19;5053172;28;20057;-79
2023/10/29 03:39:12;;;;;;;9.88;2.80;;;;;;;19.08;52.16;100555.09;5051642;28;20040;-79
2023/10/29 03:41:37;;;;;;;8.27;3.05;;;;;;;19.10;51.88;100547.56;5053035;28;20074;-79
2023/10/29 03:44:03;;;;;;;9.00;3.70;;;;;;;19.10;51.86;100553.00;5052880;28;20099;-79
2023/10/29 03:46:28;;;;;;;11.77;2.92;;;;;;;19.11;51.89;100561.00;5052883;28;20405;-80
2023/10/29 03:48:54;;;;;;;11.48;3.33;;;;;;;18.99;51.93;100540.63;5052666;28;20036;-79
2023/10/29 03:51:20;;;;;;;5.57;2.40;;;;;;;19.12;51.91;100567.31;5052546;28;20104;-80
2023/10/29 03:53:46;;;;;;;8.45;2.55;;;;;;;19.03;52.07;100544.72;5052915;28;20132;-80
2023/10/29 03:56:12;;;;;;;10.30;3.47;;;;;;;18.93;52.33;100541.38;5050196;28;20075;-79
2023/10/29 03:58:38;;;;;;;12.85;2.97;;;;;;;19.00;52.21;100575.06;5052536;28;20025;-79
2023/10/29 04:01:03;;;;;;;8.77;3.13;;;;;;;18.93;52.55;100576.78;5052409;28;20477;-79
2023/10/29 04:03:29;;;;;;;6.43;2.83;;;;;;;18.96;52.41;100574.56;5052430;28;20468;-79
2023/10/29 04:05:55;;;;;;;8.45;3.17;;;;;;;18.74;52.64;100569.09;5052350;28;20473;-80
2023/10/29 04:08:20;;;;;;;10.90;2.38;;;;;;;18.59;52.98;100555.34;5058660;28;20036;-79
2023/10/29 04:10:46;;;;;;;16.02;3.38;;;;;;;18.62;53.04;100570.53;5066543;28;20029;-79
2023/10/29 04:13:11;;;;;;;11.10;2.80;;;;;;;18.67;53.41;100579.84;5058727;28;20067;-80
2023/10/29 04:15:37;;;;;;;8.73;2.10;;;;;;;18.61;53.18;100585.16;5052821;28;20033;-79
2023/10/29 04:18:02;;;;;;;9.50;3.00;;;;;;;18.62;53.11;100581.44;5052146;28;20036;-80
2023/10/29 04:20:28;;;;;;;6.47;2.30;;;;;;;18.54;53.14;100565.94;5053180;28;20153;-78
2023/10/29 04:22:54;;;;;;;4.63;2.45;;;;;;;18.57;52.90;100583.81;5052219;28;20737;-79
2023/10/29 04:25:19;;;;;;;6.55;2.97;;;;;;;18.42;53.05;100570.06;5052587;28;20517;-79
2023/10/29 04:27:45;;;;;;;7.43;2.85;;;;;;;18.46;53.18;100598.66;5051600;28;20531;-80
2023/10/29 04:30:10;;;;;;;5.88;2.72;;;;;;;18.35;53.14;100583.53;5051888;28;20025;-79
2023/10/29 04:32:36;;;;;;;11.23;3.28;;;;;;;18.46;53.10;100615.84;5052036;28;20103;-79
2023/10/29 04:35:01;;;;;;;10.50;2.88;;;;;;;18.36;53.00;100604.28;5051909;28;20029;-79
2023/10/29 04:37:27;;;;;;;16.45;3.17;;;;;;;18.34;53.28;100608.22;5052149;28;20086;-77
2023/10/29 04:39:53;;;;;;;15.00;2.80;;;;;;;18.34;53.30;100624.56;5051779;28;20043;-77
2023/10/29 04:42:18;;;;;;;11.82;3.45;;;;;;;18.17;53.37;100606.56;5051639;28;20061;-78
2023/10/29 04:44:44;;;;;;;11.75;3.83;;;;;;;18.28;53.34;100628.00;5051382;28;20068;-78
2023/10/29 04:47:09;;;;;;;12.55;3.05;;;;;;;18.23;53.58;100636.66;5051769;28;20033;-79
2023/10/29 04:49:35;;;;;;;8.43;2.92;;;;;;;18.20;53.78;100642.47;5051439;28;20082;-77
2023/10/29 04:52:00;;;;;;;11.38;3.97;;;;;;;18.05;54.09;100638.75;5051794;28;20033;-80
2023/10/29 04:54:26;;;;;;;10.50;4.93;;;;;;;18.04;54.47;100658.81;5051648;28;20483;-80
2023/10/29 04:56:51;;;;;;;15.35;5.32;;;;;;;18.03;55.16;100657.13;5051438;28;20086;-79
2023/10/29 04:59:17;;;;;;;16.90;6.03;;;;;;;18.04;55.38;100658.81;5051365;28;20025;-79
2023/10/29 05:01:42;;;;;;;10.65;5.38;;;;;;;17.97;55.49;100660.53;5062752;28;20029;-78
2023/10/29 05:04:08;;;;;;;17.80;5.57;;;;;;;17.99;55.87;100677.53;5061239;28;20509;-80
2023/10/29 05:06:34;;;;;;;17.77;5.55;;;;;;;17.95;56.19;100687.06;5052245;28;20036;-79
2023/10/29 05:08:59;;;;;;;13.38;6.25;;;;;;;17.90;56.40;100684.00;5051392;28;20404;-80
2023/10/29 05:11:25;;;;;;;8.88;5.28;;;;;;;17.89;56.81;100687.72;5051151;28;20112;-80
2023/10/29 05:13:50;;;;;;;15.70;6.80;;;;;;;17.86;56.74;100699.81;5051274;28;20416;-79
2023/10/29 05:16:16;;;;;;;20.88;6.53;;;;;;;17.63;56.95;100665.28;5051236;28;20060;-79
2023/10/29 05:18:42;;;;;;;16.92;5.80;;;;;;;17.94;57.08;100701.69;5051024;28;20546;-79
2023/10/29 05:21:07;;;;;;;17.50;6.60;;;;;;;17.75;57.05;100691.16;5051250;28;20054;-78
2023/10/29 05:23:34;;;;;;;24.42;6.35;;;;;;;17.89;57.38;100706.78;5051163;28;20029;-79
2023/10/29 05:25:59;;;;;;;22.10;6.10;;;;;;;17.90;57.09;100701.19;5050911;28;20032;-79
2023/10/29 05:28:26;;;;;;;23.95;7.05;;;;;;;18.01;56.75;100718.19;5050757;28;20028;-80
2023/10/29 05:30:52;;;;;;;14.07;5.30;;;;;;;18.10;56.77;100728.06;5050852;28;20041;-78
2023/10/29 05:33:18;;;;;;;23.67;6.88;;;;;;;18.21;56.39;100724.97;5050746;28;20059;-79
2023/10/29 05:35:43;;;;;;;21.27;6.22;;;;;;;18.24;56.33;100730.94;5051211;28;20029;-80
2023/10/29 05:38:09;;;;;;;14.23;6.38;;;;;;;18.23;56.09;100723.78;5050675;28;20029;-79
2023/10/29 05:40:34;;;;;;;18.98;8.13;;;;;;;18.23;56.31;100745.56;5049420;28;20021;-78
2023/10/29 05:43:00;;;;;;;16.33;7.57;;;;;;;18.21;56.35;100742.19;5050322;28;20036;-80
2023/10/29 05:45:27;;;;;;;38.72;9.73;;;;;;;18.07;56.52;100740.13;5050163;28;20025;-80
2023/10/29 05:47:52;;;;;;;25.25;8.27;;;;;;;18.07;56.42;100723.78;5050538;28;20163;-79
2023/10/29 05:50:17;;;;;;;16.63;7.72;;;;;;;18.05;56.40;100736.72;5050346;28;20104;-80
2023/10/29 05:52:45;;;;;;;22.85;7.88;;;;;;;18.25;56.56;100762.59;5053367;28;20024;-79
2023/10/29 05:55:11;;;;;;;21.05;8.27;;;;;;;18.27;56.54;100768.72;5060038;28;20095;-79
2023/10/29 05:57:36;;;;;;;16.48;6.75;;;;;;;18.40;56.43;100769.06;5059665;28;20032;-80
2023/10/29 06:00:04;;;;;;;13.95;7.10;;;;;;;18.45;56.11;100777.56;5050170;28;20455;-80
2023/10/29 06:02:29;;;;;;;25.95;6.63;;;;;;;18.46;56.20;100765.66;5050029;28;20082;-80
2023/10/29 06:04:55;;;;;;;17.98;6.90;;;;;;;18.49;55.58;100767.19;5050102;28;20447;-79
2023/10/29 06:07:20;;;;;;;20.88;7.90;;;;;;;18.59;55.61;100775.19;5050060;28;20110;-81
2023/10/29 06:09:47;;;;;;;18.52;7.65;;;;;;;18.64;55.44;100770.91;5049781;28;20123;-80
2023/10/29 06:12:12;;;;;;;20.20;6.40;;;;;;;18.76;55.10;100785.88;5049522;28;20021;-81
2023/10/29 06:14:38;;;;;;;19.60;6.65;;;;;;;18.86;54.94;100786.53;5050050;28;20024;-80
2023/10/29 06:17:04;;;;;;;20.88;6.70;;;;;;;18.89;54.61;100791.66;5049794;28;20027;-80
2023/10/29 06:19:29;;;;;;;14.15;5.05;;;;;;;18.99;54.42;100788.69;5050276;28;20108;-77
2023/10/29 06:21:55;;;;;;;14.68;5.78;;;;;;;18.94;54.04;100770.16;5050650;28;20053;-81
2023/10/29 06:24:20;;;;;;;13.27;5.97;;;;;;;19.02;53.84;100786.47;5048799;28;20037;-81
2023/10/29 06:26:46;;;;;;;13.02;5.88;;;;;;;19.18;53.99;100804.66;5052520;28;20097;-79
2023/10/29 06:29:11;;;;;;;18.17;6.75;;;;;;;19.19;53.78;100803.66;5051366;28;20509;-79
2023/10/29 06:31:36;;;;;;;14.98;6.22;;;;;;;19.24;53.58;100798.50;5050093;28;20049;-80
2023/10/29 06:34:03;;;;;;;12.52;6.00;;;;;;;19.33;53.53;100805.63;5049684;28;20499;-79
2023/10/29 06:36:28;;;;;;;21.08;7.05;;;;;;;19.33;53.45;100797.44;5049910;28;20148;-77
2023/10/29 06:38:55;;;;;;;20.65;7.80;;;;;;;19.49;52.97;100808.31;5049503;28;20261;-79
2023/10/29 06:41:20;;;;;;;21.10;7.75;;;;;;;19.54;52.49;100797.72;5046815;28;20025;-78
2023/10/29 06:43:46;;;;;;;21.83;7.80;;;;;;;19.59;52.47;100799.06;5049648;28;20017;-78
2023/10/29 06:46:12;;;;;;;19.52;7.15;;;;;;;19.58;52.31;100794.63;5055218;28;20452;-76
2023/10/29 06:48:41;;;;;;;17.92;6.38;;;;;;;19.74;51.91;100808.19;5055078;28;20032;-78
2023/10/29 06:51:09;;;;;;;15.23;7.35;;;;;;;19.79;51.61;100800.28;5031698;28;20544;-78
2023/10/29 06:53:35;;;;;;;16.38;8.00;;;;;;;19.77;51.43;100803.22;5034548;28;20030;-78
2023/10/29 06:56:02;;;;;;;11.63;5.68;;;;;;;19.84;51.46;100800.63;5033675;28;20036;-78
2023/10/29 06:58:27;;;;;;;31.92;10.55;;;;;;;19.88;50.99;100810.97;5033769;28;20034;-79
2023/10/29 07:00:53;;;;;;;13.63;6.68;;;;;;;19.92;50.87;100816.94;5034132;28;20405;-79
2023/10/29 07:03:19;;;;;;;25.42;9.60;;;;;;;19.74;51.29;100792.66;5033809;28;20072;-78
2023/10/29 07:05:44;;;;;;;25.17;8.98;;;;;;;19.96;51.14;100807.38;5035230;28;20112;-79
2023/10/29 07:08:10;;;;;;;30.38;5.88;;;;;;;20.05;50.76;100798.94;5035212;28;20033;-78
2023/10/29 07:10:36;;;;;;;10.32;5.10;;;;;;;20.06;50.30;100800.63;5035049;28;20040;-81
2023/10/29 07:13:02;;;;;;;12.23;5.45;;;;;;;20.23;50.19;100811.44;5034854;28;20037;-77
2023/10/29 07:15:28;;;;;;;14.80;5.28;;;;;;;20.20;49.76;100814.53;5034647;28;20394;-81
2023/10/29 07:17:53;;;;;;;19.52;4.53;;;;;;;20.21;49.78;100811.63;5037317;28;20080;-83
2023/10/29 07:20:19;;;;;;;14.98;5.13;;;;;;;20.27;49.57;100805.47;5035524;28;20041;-80
2023/10/29 07:22:44;;;;;;;9.45;5.07;;;;;;;20.15;49.50;100795.94;5033841;28;20055;-78
2023/10/29 07:25:10;;;;;;;12.65;4.30;;;;;;;20.33;49.25;100812.06;5034158;28;20040;-83
2023/10/29 07:27:36;;;;;;;12.15;4.25;;;;;;;20.39;49.56;100817.66;5039154;28;20041;-83
2023/10/29 07:30:02;;;;;;;7.72;3.65;;;;;;;20.46;49.17;100815.88;5036816;28;20021;-81
2023/10/29 07:32:28;;;;;;;16.30;4.90;;;;;;;20.52;48.95;100822.47;5036394;28;20056;-78
2023/10/29 07:34:54;;;;;;;19.38;5.05;;;;;;;20.58;49.09;100833.53;5034065;28;20033;-81
2023/10/29 07:37:19;;;;;;;26.73;4.65;;;;;;;20.53;48.92;100803.16;5039023;28;20029;-83
2023/10/29 07:39:45;;;;;;;14.60;4.07;;;;;;;20.73;48.84;100838.19;5050920;28;20021;-81
2023/10/29 07:42:10;;;;;;;18.55;4.55;;;;;;;20.70;48.56;100823.00;5046375;28;20107;-81
2023/10/29 07:44:36;;;;;;;21.50;3.78;;;;;;;20.93;48.14;100837.47;5033750;28;20087;-81
2023/10/29 07:47:07;;;;;;;13.50;4.05;;;;;;;21.06;47.95;100845.03;5033419;28;20025;-80
2023/10/29 07:49:34;;;;;;;16.70;4.85;;;;;;;21.09;47.62;100834.59;5033346;28;20025;-81
2023/10/29 07:52:00;;;;;;;10.45;3.67;;;;;;;21.10;47.78;100840.88;5033531;28;20424;-81
2023/10/29 07:54:26;;;;;;;11.68;4.07;;;;;;;21.21;47.42;100831.38;5032861;28;20026;-80
2023/10/29 07:56:53;;;;;;;12.73;3.67;;;;;;;21.35;47.35;100839.59;5032326;28;20041;-81
2023/10/29 07:59:18;;;;;;;18.02;3.45;;;;;;;21.45;47.22;100845.63;5030036;28;20121;-81
2023/10/29 08:01:45;;;;;;;13.90;3.92;;;;;;;21.51;46.84;100839.38;5032130;28;20239;-81
2023/10/29 08:04:10;;;;;;;17.02;4.93;;;;;;;21.53;46.71;100826.34;5031105;28;20022;-81
2023/10/29 08:06:36;;;;;;;13.27;3.83;;;;;;;21.81;46.47;100837.44;5032374;28;20108;-82
2023/10/29 08:09:01;;;;;;;15.80;3.78;;;;;;;21.97;45.96;100844.63;5013582;28;20501;-80
2023/10/29 08:11:27;;;;;;;15.63;4.50;;;;;;;22.07;45.67;100846.00;5032241;28;20029;-82
2023/10/29 08:13:52;;;;;;;5.65;3.38;;;;;;;22.20;45.58;100834.31;5033663;28;20022;-81
2023/10/29 08:16:18;;;;;;;18.23;4.40;;;;;;;22.36;45.28;100846.91;5032305;28;20461;-81
2023/10/29 08:18:44;;;;;;;12.25;3.55;;;;;;;22.40;45.02;100834.53;5033018;28;20034;-81
2023/10/29 08:21:09;;;;;;;9.38;3.42;;;;;;;22.56;44.66;100854.31;5032729;28;20036;-81
2023/10/29 08:23:35;;;;;;;8.38;3.67;;;;;;;22.59;44.71;100820.16;5032192;28;20033;-81
2023/10/29 08:26:01;;;;;;;10.48;3.88;;;;;;;22.75;44.35;100828.13;5032197;28;20469;-81
2023/10/29 08:28:27;;;;;;;10.85;3.83;;;;;;;22.95;43.55;100847.47;5031926;28;20798;-81
2023/10/29 08:30:54;;;;;;;19.77;3.72;;;;;;;22.78;43.75;100811.28;5046989;28;20017;-81
2023/10/29 08:33:20;;;;;;;6.78;3.38;;;;;;;23.19;43.75;100833.28;5052378;28;20036;-80
2023/10/29 08:35:46;;;;;;;7.45;3.05;;;;;;;23.42;42.68;100853.09;5036936;28;20030;-81
2023/10/29 08:38:11;;;;;;;9.27;3.47;;;;;;;23.45;42.51;100836.22;5032063;28;20112;-81
2023/10/29 08:40:36;;;;;;;21.85;5.22;;;;;;;23.56;42.68;100835.63;5032009;28;20030;-82
2023/10/29 08:43:06;;;;;;;13.98;3.88;;;;;;;23.63;42.25;100833.78;5032272;28;20091;-81
2023/10/29 08:45:31;;;;;;;14.45;3.58;;;;;;;23.63;41.68;100847.50;5031722;28;20029;-82
2023/10/29 08:47:57;;;;;;;13.80;3.13;;;;;;;23.54;42.05;100845.13;5040670;28;20098;-80
2023/10/29 08:50:22;;;;;;;9.68;3.05;;;;;;;23.68;42.17;100849.63;5031909;28;20021;-80
2023/10/29 08:52:48;;;;;;;12.57;2.92;;;;;;;23.62;41.91;100850.44;5031285;28;20152;-81
2023/10/29 08:55:14;;;;;;;12.68;3.53;;;;;;;23.51;42.07;100857.38;5031475;28;20405;-80
2023/10/29 08:57:39;;;;;;;12.48;3.45;;;;;;;23.50;42.48;100833.72;5031167;28;20112;-82
2023/10/29 09:00:05;;;;;;;9.77;3.45;;;;;;;23.64;42.11;100851.94;5031433;28;20032;-81
2023/10/29 09:02:31;;;;;;;23.58;4.53;;;;;;;23.65;42.29;100853.63;5031436;28;20717;-81
2023/10/29 09:04:57;;;;;;;13.25;3.47;;;;;;;23.73;41.39;100839.72;5030791;28;20497;-81
2023/10/29 09:07:24;;;;;;;17.77;3.30;;;;;;;23.76;41.45;100838.47;5030951;28;20030;-82
2023/10/29 09:09:50;;;;;;;13.20;3.08;;;;;;;23.96;41.25;100844.03;5030789;28;20466;-80
2023/10/29 09:12:15;;;;;;;7.97;3.47;;;;;;;24.01;41.12;100841.50;5012437;28;20124;-81
2023/10/29 09:14:41;;;;;;;11.43;2.85;;;;;;;24.07;40.87;100819.53;5030837;28;20068;-80
2023/10/29 09:17:06;;;;;;;21.33;4.55;;;;;;;23.99;40.82;100836.22;5031352;28;20037;-81
2023/10/29 09:19:32;;;;;;;15.45;3.70;;;;;;;24.20;40.79;100836.09;5030955;28;20029;-82
2023/10/29 09:21:58;;;;;;;22.85;5.10;;;;;;;24.25;40.66;100839.06;5035085;28;20104;-81
2023/10/29 09:24:23;;;;;;;15.55;3.25;;;;;;;24.37;40.14;100837.38;5051637;28;20029;-82
2023/10/29 09:26:49;;;;;;;9.15;3.17;;;;;;;24.22;39.87;100822.13;5046399;28;20409;-81
2023/10/29 09:29:16;;;;;;;16.38;4.57;;;;;;;24.20;39.82;100829.75;5032053;28;20029;-80
2023/10/29 09:31:42;;;;;;;191.95;25.63;;;;;;;24.45;39.88;100847.34;5030731;28;20462;-81
2023/10/29 09:34:08;;;;;;;9.55;2.58;;;;;;;24.53;39.10;100847.13;5030734;28;20486;-80
2023/10/29 09:36:33;;;;;;;13.27;3.00;;;;;;;24.35;39.49;100819.41;5030602;28;20034;-82
2023/10/29 09:38:59;;;;;;;27.63;4.57;;;;;;;24.42;38.88;100842.28;5030891;28;20104;-81
2023/10/29 09:41:24;;;;;;;7.35;2.53;;;;;;;24.22;39.07;100805.63;5031024;28;20083;-80
2023/10/29 09:43:52;;;;;;;8.68;3.25;;;;;;;24.48;38.98;100838.69;5030678;28;20025;-82
2023/10/29 09:46:19;;;;;;;14.60;3.85;;;;;;;24.48;38.79;100837.84;5030808;28;20064;-82
2023/10/29 09:48:46;;;;;;;9.93;3.00;;;;;;;24.43;38.58;100832.97;5030847;28;20022;-82
2023/10/29 09:51:12;;;;;;;6.30;2.28;;;;;;;24.55;38.79;100835.94;5030746;28;20116;-83
2023/10/29 09:53:38;;;;;;;9.70;2.72;;;;;;;24.42;38.64;100817.53;5030593;28;20565;-81
2023/10/29 09:56:10;;;;;;;13.82;3.38;;;;;;;24.40;38.45;100836.16;5030479;28;20029;-81
2023/10/29 09:58:36;;;;;;;5.13;2.20;;;;;;;24.27;38.82;100833.38;5030645;28;20098;-82
2023/10/29 10:01:04;;;;;;;19.70;2.97;;;;;;;23.96;39.26;100833.03;5028808;28;20037;-82
2023/10/29 10:03:30;;;;;;;6.00;2.53;;;;;;;24.02;39.45;100833.06;5031155;28;20068;-81
2023/10/29 10:05:57;;;;;;;7.95;2.40;;;;;;;23.92;39.68;100838.09;5037610;28;20044;-81
2023/10/29 10:08:30;;;;;;;7.28;2.65;;;;;;;24.00;40.05;100837.09;5031046;28;20040;-80
2023/10/29 10:10:56;;;;;;;29.48;4.00;;;;;;;24.02;39.88;100837.72;5030520;28;20082;-82
2023/10/29 10:13:39;;;;;;;15.32;2.90;;;;;;;23.92;41.24;100837.25;5030776;28;20035;-82
2023/10/29 10:16:15;;;;;;;10.73;3.10;;;;;;;23.81;42.29;100842.31;5046091;28;20121;-82
2023/10/29 10:18:47;;;;;;;6.88;3.13;;;;;;;23.84;42.66;100844.66;5046646;28;20021;-81
2023/10/29 10:21:13;;;;;;;;;;;;;;;23.87;42.65;100845.28;5030549;28;20051;-81
2023/10/29 10:23:52;;;;;;;9.93;2.30;;;;;;;23.79;42.54;100832.59;5030569;28;20017;-81
2023/10/29 10:26:27;;;;;;;9.95;2.95;;;;;;;23.84;41.39;100836.41;5029896;28;20032;-81
2023/10/29 10:28:54;;;;;;;43.15;5.63;;;;;;;23.89;41.11;100835.75;5028096;28;20048;-81
2023/10/29 10:31:20;;;;;;;10.93;2.90;;;;;;;23.95;41.16;100832.19;5030500;28;20040;-81
2023/10/29 10:33:45;;;;;;;12.02;3.50;;;;;;;24.02;40.40;100832.22;5030518;28;20439;-80
2023/10/29 10:36:11;;;;;;;7.90;2.88;;;;;;;24.13;40.74;100832.47;5030118;28;20076;-81
2023/10/29 10:38:51;;;;;;;9.18;2.72;;;;;;;24.24;39.78;100828.28;5030088;28;20029;-81
2023/10/29 10:41:17;;;;;;;14.55;3.88;;;;;;;24.27;39.40;100803.13;5029944;28;20087;-81
2023/10/29 10:43:42;;;;;;;6.50;2.85;;;;;;;24.36;38.69;100812.88;5029775;28;20426;-82
2023/10/29 10:46:11;;;;;;;5.53;2.40;;;;;;;24.35;39.23;100817.50;5030154;28;20029;-81
2023/10/29 10:48:37;;;;;;;9.57;4.32;;;;;;;24.42;39.50;100822.19;5030318;28;20025;-82
2023/10/29 10:51:05;;;;;;;8.27;2.17;;;;;;;24.47;39.87;100825.97;5029759;28;20025;-81
2023/10/29 10:53:32;;;;;;;16.30;4.38;;;;;;;24.46;40.01;100816.06;5029968;28;20038;-81
2023/10/29 10:55:59;;;;;;;24.52;2.80;;;;;;;24.56;40.75;100816.47;5029912;28;20455;-81
2023/10/29 10:58:26;;;;;;;9.02;2.53;;;;;;;24.49;41.31;100817.53;5030351;28;20108;-80
2023/10/29 11:00:52;;;;;;;4.97;2.85;;;;;;;24.57;40.44;100818.16;5030848;28;20044;-81
2023/10/29 11:03:19;;;;;;;13.88;2.60;;;;;;;24.45;40.62;100817.09;5029907;28;20025;-80
2023/10/29 11:05:46;;;;;;;12.70;2.63;;;;;;;24.40;41.33;100814.16;5030210;28;20055;-82
2023/10/29 11:08:16;;;;;;;8.23;2.33;;;;;;;24.63;41.04;100819.22;5046768;28;20032;-82
2023/10/29 11:10:46;;;;;;;18.63;2.97;;;;;;;24.73;41.18;100816.91;5052584;28;20041;-82
2023/10/29 11:13:21;;;;;;;16.08;2.58;;;;;;;24.59;40.92;100785.78;5031868;28;20033;-81
2023/10/29 11:15:48;;;;;;;10.02;2.55;;;;;;;24.90;40.70;100819.03;5030397;28;20032;-82
2023/10/29 11:18:13;;;;;;;10.60;3.13;;;;;;;24.92;41.09;100825.16;5030369;28;20044;-82